Time;durP1;ratioP1;P1;durP2;ratioP2;P2;SDS_P1;SDS_P2;PMS_P1;PMS_P2;Temp;Humidity;BMP_temperature;BMP_pressure;BME280_temperature;BME280_humidity;BME280_pressure;Samples;Min_cycle;Max_cycle;Signal;HPM_P1;HPM_P2
2023/10/23 00:01:38;;;;;;;6.22;2.05;;;;;;;9.47;100.00;99847.59;4988231;28;20077;-47
2023/10/23 00:04:06;;;;;;;7.80;1.90;;;;;;;9.48;100.00;99843.66;4989184;28;20093;-48
2023/10/23 00:06:34;;;;;;;6.85;1.80;;;;;;;9.51;100.00;99844.88;4990018;28;20073;-47
2023/10/23 00:09:02;;;;;;;6.85;1.67;;;;;;;9.55;100.00;99838.31;4990609;28;20713;-47
2023/10/23 00:11:31;;;;;;;8.68;1.33;;;;;;;9.62;100.00;99837.66;4990300;28;20065;-50
2023/10/23 00:13:59;;;;;;;12.52;2.53;;;;;;;9.68;100.00;99845.31;4989989;28;20043;-46
2023/10/23 00:16:25;;;;;;;9.32;2.08;;;;;;;9.73;100.00;99844.22;4988348;28;20038;-48
2023/10/23 00:18:52;;;;;;;9.23;1.27;;;;;;;9.77;100.00;99842.31;4989583;28;20068;-47
2023/10/23 00:21:19;;;;;;;4.75;1.55;;;;;;;9.82;100.00;99833.78;4989771;28;20392;-47
2023/10/23 00:23:46;;;;;;;7.90;1.60;;;;;;;9.86;100.00;99825.53;4989399;28;20085;-46
2023/10/23 00:26:13;;;;;;;6.93;1.35;;;;;;;9.90;100.00;99827.19;4986778;28;20041;-50
2023/10/23 00:28:40;;;;;;;1.75;0.90;;;;;;;9.93;100.00;99826.47;4989290;28;20043;-45
2023/10/23 00:31:06;;;;;;;10.55;1.75;;;;;;;9.98;100.00;99817.88;4989409;28;20161;-48
2023/10/23 00:33:33;;;;;;;8.93;1.77;;;;;;;10.03;100.00;99825.13;4989306;28;20145;-46
2023/10/23 00:36:00;;;;;;;10.07;1.83;;;;;;;10.05;100.00;99831.88;4989159;28;20041;-46
2023/10/23 00:38:28;;;;;;;3.60;1.20;;;;;;;10.08;100.00;99820.09;4989351;28;20057;-46
2023/10/23 00:40:55;;;;;;;10.32;1.50;;;;;;;10.11;100.00;99822.09;4989628;28;20038;-47
2023/10/23 00:43:24;;;;;;;8.98;2.90;;;;;;;10.14;100.00;99810.34;4989105;28;20042;-49
2023/10/23 00:45:55;;;;;;;6.28;1.20;;;;;;;10.18;100.00;99807.66;4989066;28;20116;-49
2023/10/23 00:48:24;;;;;;;11.47;2.13;;;;;;;10.18;100.00;99816.78;4989694;28;20053;-46
2023/10/23 00:51:01;;;;;;;6.85;2.33;;;;;;;10.22;100.00;99806.56;4989231;28;20389;-48
2023/10/23 00:53:33;;;;;;;7.40;1.42;;;;;;;10.23;100.00;99801.84;4989411;28;20046;-48
2023/10/23 00:56:04;;;;;;;6.25;1.30;;;;;;;10.27;100.00;99806.25;4985820;28;20034;-49
2023/10/23 00:58:33;;;;;;;10.48;1.27;;;;;;;10.31;100.00;99807.16;4988413;28;20614;-47
2023/10/23 01:01:01;;;;;;;6.30;1.80;;;;;;;10.33;100.00;99804.81;4992259;28;20061;-46
2023/10/23 01:03:28;;;;;;;9.32;1.45;;;;;;;10.35;100.00;99805.22;5008069;28;20085;-48
2023/10/23 01:05:56;;;;;;;6.15;1.48;;;;;;;10.37;100.00;99805.69;5008662;28;20049;-49
2023/10/23 01:08:22;;;;;;;10.57;1.65;;;;;;;10.35;100.00;99801.69;5008623;28;20129;-48
2023/10/23 01:10:49;;;;;;;9.52;1.60;;;;;;;10.34;100.00;99803.66;5008783;28;20808;-46
2023/10/23 01:13:17;;;;;;;12.55;1.80;;;;;;;10.37;100.00;99804.88;5008458;28;20046;-49
2023/10/23 01:15:44;;;;;;;20.10;5.03;;;;;;;10.37;100.00;99796.59;5009059;28;20053;-47
2023/10/23 01:18:11;;;;;;;6.45;1.33;;;;;;;10.38;100.00;99800.94;5008749;28;20048;-54
2023/10/23 01:20:38;;;;;;;8.88;1.63;;;;;;;10.35;100.00;99790.63;5009201;28;20038;-48
2023/10/23 01:23:05;;;;;;;6.82;1.40;;;;;;;10.36;100.00;99794.97;5008936;28;20467;-49
2023/10/23 01:25:32;;;;;;;6.78;1.50;;;;;;;10.39;100.00;99797.81;4994822;28;20057;-49
2023/10/23 01:27:59;;;;;;;8.55;1.40;;;;;;;10.38;100.00;99801.75;5008691;28;20385;-50
2023/10/23 01:30:25;;;;;;;7.88;2.67;;;;;;;10.42;100.00;99792.72;5008793;28;20054;-47
2023/10/23 01:32:52;;;;;;;9.82;1.52;;;;;;;10.42;100.00;99792.72;5007933;28;20052;-46
2023/10/23 01:35:19;;;;;;;15.52;2.70;;;;;;;10.40;100.00;99793.88;5008567;28;20038;-45
2023/10/23 01:37:47;;;;;;;13.52;2.00;;;;;;;10.43;100.00;99788.78;5007886;28;20053;-45
2023/10/23 01:40:14;;;;;;;8.45;1.08;;;;;;;10.48;100.00;99791.25;5008617;28;20048;-49
2023/10/23 01:42:43;;;;;;;7.93;1.80;;;;;;;10.50;100.00;99786.94;5008471;28;20458;-49
2023/10/23 01:45:10;;;;;;;8.80;2.35;;;;;;;10.53;100.00;99785.41;5007804;28;20484;-48
2023/10/23 01:47:37;;;;;;;12.73;1.58;;;;;;;10.57;100.00;99786.25;5008187;28;20465;-49
2023/10/23 01:50:05;;;;;;;8.07;2.55;;;;;;;10.56;100.00;99790.22;5008268;28;20121;-46
2023/10/23 01:52:32;;;;;;;9.05;3.08;;;;;;;10.60;100.00;99793.81;5008279;28;20710;-45
2023/10/23 01:54:59;;;;;;;9.82;2.83;;;;;;;10.61;100.00;99779.63;5007544;28;20486;-47
2023/10/23 01:57:26;;;;;;;7.47;1.95;;;;;;;10.65;100.00;99782.44;5007552;28;20077;-45
2023/10/23 01:59:53;;;;;;;17.92;2.33;;;;;;;10.68;100.00;99784.47;5007873;28;20069;-46
2023/10/23 02:02:21;;;;;;;12.27;2.78;;;;;;;10.69;100.00;99781.38;4993250;28;20060;-46
2023/10/23 02:04:49;;;;;;;16.98;2.53;;;;;;;10.69;100.00;99775.81;4988823;28;20042;-45
2023/10/23 02:07:15;;;;;;;9.32;1.52;;;;;;;10.69;100.00;99780.56;4988006;28;20050;-50
2023/10/23 02:09:42;;;;;;;14.10;1.58;;;;;;;10.72;100.00;99777.06;4987780;28;20093;-45
2023/10/23 02:12:09;;;;;;;12.23;1.70;;;;;;;10.71;100.00;99765.19;4988500;28;20042;-46
2023/10/23 02:14:35;;;;;;;13.10;1.50;;;;;;;10.73;100.00;99770.31;4987201;28;20404;-46
2023/10/23 02:17:02;;;;;;;11.27;2.33;;;;;;;10.74;100.00;99760.88;4988073;28;20555;-47
2023/10/23 02:19:30;;;;;;;22.75;3.22;;;;;;;10.76;100.00;99761.28;4987645;28;20046;-46
2023/10/23 02:21:57;;;;;;;13.88;1.90;;;;;;;10.78;100.00;99756.97;4987381;28;20049;-45
2023/10/23 02:24:23;;;;;;;10.43;1.52;;;;;;;10.82;100.00;99768.13;4987390;28;20050;-47
2023/10/23 02:26:51;;;;;;;14.02;2.63;;;;;;;10.83;100.00;99769.69;4986927;28;20053;-47
2023/10/23 02:29:17;;;;;;;15.63;2.40;;;;;;;10.86;100.00;99774.50;4987538;28;20489;-47
2023/10/23 02:31:44;;;;;;;19.23;2.95;;;;;;;10.87;100.00;99771.38;4988272;28;20097;-48
2023/10/23 02:34:11;;;;;;;36.53;3.65;;;;;;;10.86;100.00;99768.97;4987403;28;20038;-46
2023/10/23 02:36:38;;;;;;;13.18;2.35;;;;;;;10.85;100.00;99770.16;4986410;28;20042;-47
2023/10/23 02:39:06;;;;;;;12.27;2.15;;;;;;;10.82;100.00;99765.34;4986838;28;20144;-48
2023/10/23 02:41:32;;;;;;;16.35;2.05;;;;;;;10.79;100.00;99763.31;4987454;28;20038;-46
2023/10/23 02:43:59;;;;;;;13.00;2.45;;;;;;;10.78;100.00;99764.47;4987843;28;20053;-45
2023/10/23 02:46:26;;;;;;;17.15;2.15;;;;;;;10.77;100.00;99757.38;4985917;28;20038;-48
2023/10/23 02:48:53;;;;;;;9.02;3.47;;;;;;;10.80;100.00;99759.41;4986908;28;20046;-47
2023/10/23 02:51:20;;;;;;;16.58;2.20;;;;;;;10.80;100.00;99762.16;4986666;28;20705;-45
2023/10/23 02:53:47;;;;;;;15.10;2.47;;;;;;;10.81;100.00;99760.97;4987276;28;20042;-47
2023/10/23 02:56:13;;;;;;;19.40;2.53;;;;;;;10.85;100.00;99767.38;4981483;28;20070;-46
2023/10/23 02:58:40;;;;;;;23.73;3.83;;;;;;;10.87;100.00;99760.31;4986738;28;20888;-50
2023/10/23 03:01:20;;;;;;;12.63;2.53;;;;;;;10.89;100.00;99757.97;5099598;22;20072;-46
2023/10/23 03:03:48;;;;;;;15.60;3.92;;;;;;;10.91;100.00;99758.38;5031079;28;20057;-45
2023/10/23 03:06:15;;;;;;;12.77;2.25;;;;;;;10.92;100.00;99760.00;5025696;28;20659;-47
2023/10/23 03:08:43;;;;;;;10.20;2.55;;;;;;;10.95;100.00;99755.69;5026495;28;20779;-47
2023/10/23 03:11:10;;;;;;;15.48;2.40;;;;;;;10.94;100.00;99745.75;5026420;28;20049;-46
2023/10/23 03:13:36;;;;;;;17.60;2.80;;;;;;;10.95;100.00;99741.84;5025512;28;20041;-46
2023/10/23 03:16:03;;;;;;;25.08;5.88;;;;;;;10.96;100.00;99746.22;5026607;28;20068;-48
2023/10/23 03:18:30;;;;;;;17.00;3.05;;;;;;;10.96;100.00;99740.66;5026018;28;20526;-48
2023/10/23 03:21:00;;;;;;;21.33;3.55;;;;;;;10.95;100.00;99739.06;5027015;28;20038;-46
2023/10/23 03:23:31;;;;;;;23.30;3.30;;;;;;;10.93;100.00;99741.41;5024966;28;20733;-44
2023/10/23 03:25:59;;;;;;;13.48;3.00;;;;;;;10.90;100.00;99737.41;5007681;28;20092;-44
2023/10/23 03:28:25;;;;;;;13.80;2.88;;;;;;;10.90;100.00;99740.19;5025625;28;20041;-44
2023/10/23 03:30:52;;;;;;;13.65;2.75;;;;;;;10.91;100.00;99738.19;5026330;28;20041;-44
2023/10/23 03:33:19;;;;;;;19.00;3.03;;;;;;;10.91;100.00;99743.72;5025175;28;20038;-44
2023/10/23 03:35:46;;;;;;;17.55;3.22;;;;;;;10.90;100.00;99742.16;5027975;28;20037;-44
2023/10/23 03:38:14;;;;;;;11.55;2.30;;;;;;;10.88;100.00;99738.97;5030197;28;20042;-47
2023/10/23 03:40:41;;;;;;;13.43;2.90;;;;;;;10.87;100.00;99731.81;5030461;28;20037;-45
2023/10/23 03:43:08;;;;;;;13.07;2.72;;;;;;;10.90;100.00;99739.38;5030128;28;20087;-47
2023/10/23 03:45:38;;;;;;;21.08;3.38;;;;;;;10.92;100.00;99746.16;5029613;28;20136;-45
2023/10/23 03:48:05;;;;;;;12.05;2.40;;;;;;;10.96;100.00;99735.91;5029155;28;20034;-47
2023/10/23 03:50:36;;;;;;;14.35;3.65;;;;;;;10.95;100.00;99727.97;5029770;28;20407;-47
2023/10/23 03:53:03;;;;;;;15.07;3.28;;;;;;;10.95;100.00;99722.44;5029240;28;20529;-46
2023/10/23 03:55:29;;;;;;;21.75;3.67;;;;;;;10.95;100.00;99739.88;5028366;28;20041;-45
2023/10/23 03:57:56;;;;;;;13.52;2.55;;;;;;;10.97;100.00;99739.47;5016435;28;20637;-44
2023/10/23 04:00:23;;;;;;;17.65;4.07;;;;;;;10.96;100.00;99746.22;5028287;28;20045;-44
2023/10/23 04:02:52;;;;;;;17.08;4.75;;;;;;;10.94;100.00;99729.94;5029985;28;20049;-44
2023/10/23 04:05:18;;;;;;;12.35;2.42;;;;;;;10.95;100.00;99726.03;5029110;28;20053;-45
2023/10/23 04:07:45;;;;;;;16.35;2.72;;;;;;;10.94;100.00;99723.59;5012211;28;20092;-46
2023/10/23 04:10:13;;;;;;;18.08;2.88;;;;;;;10.94;100.00;99729.94;5030114;28;20064;-46
2023/10/23 04:12:40;;;;;;;13.35;2.70;;;;;;;10.95;100.00;99734.31;5029988;28;20041;-44
2023/10/23 04:15:07;;;;;;;9.98;2.00;;;;;;;10.96;100.00;99724.06;5029741;28;20482;-45
2023/10/23 04:17:34;;;;;;;18.42;2.97;;;;;;;10.94;100.00;99727.19;5029336;28;20065;-46
2023/10/23 04:20:01;;;;;;;20.45;4.95;;;;;;;10.95;100.00;99722.44;5029749;28;20083;-45
2023/10/23 04:22:27;;;;;;;18.15;2.65;;;;;;;10.98;100.00;99727.25;5029684;28;20045;-46
2023/10/23 04:24:55;;;;;;;11.15;2.55;;;;;;;11.03;100.00;99726.91;5029097;28;20140;-48
2023/10/23 04:27:21;;;;;;;15.85;2.63;;;;;;;11.02;100.00;99722.53;5029019;28;20050;-47
2023/10/23 04:29:48;;;;;;;17.73;2.80;;;;;;;11.02;100.00;99728.09;5029402;28;20045;-46
2023/10/23 04:32:15;;;;;;;11.32;2.22;;;;;;;11.04;100.00;99722.19;5029524;28;20516;-45
2023/10/23 04:34:42;;;;;;;20.73;4.93;;;;;;;11.04;100.00;99716.66;5029459;28;20072;-44
2023/10/23 04:37:08;;;;;;;14.23;2.30;;;;;;;11.06;100.00;99722.59;5029189;28;20041;-45
2023/10/23 04:39:35;;;;;;;17.95;3.03;;;;;;;11.06;100.00;99712.34;5028952;28;20042;-45
2023/10/23 04:42:02;;;;;;;18.25;2.58;;;;;;;11.08;100.00;99715.53;5029270;28;20037;-44
2023/10/23 04:44:29;;;;;;;32.60;4.80;;;;;;;11.08;100.00;99709.19;5028748;28;20037;-45
2023/10/23 04:46:56;;;;;;;12.52;2.85;;;;;;;11.10;100.00;99724.25;5028338;28;20483;-45
2023/10/23 04:49:23;;;;;;;13.20;3.20;;;;;;;11.12;100.00;99719.13;5028673;28;20495;-44
2023/10/23 04:51:49;;;;;;;15.38;3.42;;;;;;;11.13;100.00;99700.53;5029301;28;20071;-47
2023/10/23 04:54:16;;;;;;;13.30;2.63;;;;;;;11.17;100.00;99702.22;5023969;28;20041;-46
2023/10/23 04:56:43;;;;;;;17.25;3.42;;;;;;;11.20;100.00;99698.66;5001423;28;20046;-47
2023/10/23 04:59:10;;;;;;;24.60;3.08;;;;;;;11.22;100.00;99710.19;5022574;28;20494;-45
2023/10/23 05:01:38;;;;;;;16.10;2.33;;;;;;;11.23;100.00;99706.22;5028383;28;20061;-44
2023/10/23 05:04:09;;;;;;;17.48;3.30;;;;;;;11.26;100.00;99699.94;5028629;28;20056;-47
2023/10/23 05:06:37;;;;;;;12.88;2.38;;;;;;;11.28;100.00;99708.66;5028486;28;20084;-46
2023/10/23 05:09:04;;;;;;;28.70;3.30;;;;;;;11.27;100.00;99706.28;5028410;28;20129;-44
2023/10/23 05:11:32;;;;;;;15.57;2.42;;;;;;;11.28;100.00;99705.13;5028246;28;20564;-44
2023/10/23 05:13:59;;;;;;;14.85;2.88;;;;;;;11.29;100.00;99707.50;5027966;28;20160;-44
2023/10/23 05:16:26;;;;;;;19.85;2.95;;;;;;;11.30;100.00;99700.00;5028355;28;20847;-44
2023/10/23 05:18:52;;;;;;;17.48;2.72;;;;;;;11.29;100.00;99699.19;5028147;28;20033;-44
2023/10/23 05:21:19;;;;;;;13.32;2.97;;;;;;;11.29;100.00;99704.75;5028441;28;20044;-44
2023/10/23 05:23:46;;;;;;;18.23;2.47;;;;;;;11.30;100.00;99700.00;5027268;28;20680;-44
2023/10/23 05:26:14;;;;;;;13.02;2.95;;;;;;;11.31;100.00;99713.47;5024732;28;20053;-44
2023/10/23 05:28:41;;;;;;;9.63;2.72;;;;;;;11.31;100.00;99705.16;5028656;28;20045;-44
2023/10/23 05:31:09;;;;;;;11.32;2.45;;;;;;;11.32;100.00;99709.53;5028741;28;20037;-44
2023/10/23 05:33:36;;;;;;;15.25;3.33;;;;;;;11.32;100.00;99704.00;5028247;28;20041;-46
2023/10/23 05:36:09;;;;;;;30.52;7.43;;;;;;;11.30;100.00;99695.25;5028377;28;20042;-47
2023/10/23 05:38:37;;;;;;;23.98;7.43;;;;;;;11.28;100.00;99692.06;5023378;28;20077;-44
2023/10/23 05:41:10;;;;;;;23.52;6.50;;;;;;;11.27;100.00;99701.56;5028471;28;20049;-44
2023/10/23 05:43:38;;;;;;;17.98;4.65;;;;;;;11.28;100.00;99694.03;5027427;28;20045;-44
2023/10/23 05:46:05;;;;;;;20.65;4.28;;;;;;;11.26;100.00;99699.94;5028051;28;20057;-45
2023/10/23 05:48:33;;;;;;;19.23;4.65;;;;;;;11.27;100.00;99700.75;5028023;28;20037;-45
2023/10/23 05:51:03;;;;;;;23.50;4.30;;;;;;;11.28;100.00;99700.34;5026212;28;20535;-44
2023/10/23 05:53:30;;;;;;;22.80;4.80;;;;;;;11.31;100.00;99696.84;5027308;28;20053;-45
2023/10/23 05:56:04;;;;;;;13.57;3.47;;;;;;;11.32;100.00;99692.91;5027871;28;20038;-45
2023/10/23 05:58:33;;;;;;;22.27;4.68;;;;;;;11.34;100.00;99700.84;5027230;28;20048;-47
2023/10/23 06:01:07;;;;;;;16.33;3.85;;;;;;;11.34;100.00;99696.09;5027777;28;20049;-46
2023/10/23 06:03:34;;;;;;;17.50;4.32;;;;;;;11.35;100.00;99694.13;5027619;28;20042;-53
2023/10/23 06:06:02;;;;;;;23.60;3.10;;;;;;;11.32;100.00;99684.59;5027237;28;20068;-47
2023/10/23 06:08:29;;;;;;;19.63;4.05;;;;;;;11.32;100.00;99692.09;5027452;28;20052;-45
2023/10/23 06:10:56;;;;;;;17.48;3.10;;;;;;;11.29;100.00;99688.13;5027672;28;20045;-45
2023/10/23 06:13:23;;;;;;;16.02;3.15;;;;;;;11.29;100.00;99679.81;5027447;28;20037;-45
2023/10/23 06:15:50;;;;;;;12.80;2.65;;;;;;;11.32;100.00;99687.38;5027134;28;20046;-45
2023/10/23 06:18:18;;;;;;;20.13;4.30;;;;;;;11.33;100.00;99675.09;5024887;28;20100;-45
2023/10/23 06:20:44;;;;;;;35.90;3.95;;;;;;;11.36;100.00;99674.34;5026487;28;20136;-46
2023/10/23 06:23:11;;;;;;;11.95;2.70;;;;;;;11.39;100.00;99681.09;5027362;28;20069;-45
2023/10/23 06:25:39;;;;;;;9.35;2.72;;;;;;;11.40;100.00;99677.16;5026310;28;20075;-44
2023/10/23 06:28:07;;;;;;;14.95;2.78;;;;;;;11.40;100.00;99686.28;5027312;28;20430;-45
2023/10/23 06:30:35;;;;;;;14.95;2.92;;;;;;;11.41;100.00;99684.31;5026702;28;20033;-44
2023/10/23 06:33:03;;;;;;;21.88;4.68;;;;;;;11.40;100.00;99686.28;5027011;28;20092;-44
2023/10/23 06:35:30;;;;;;;17.30;4.43;;;;;;;11.39;100.00;99693.00;5026361;28;20033;-46
2023/10/23 06:37:56;;;;;;;14.25;3.25;;;;;;;11.36;100.00;99687.41;5027195;28;20045;-44
2023/10/23 06:40:23;;;;;;;19.95;2.50;;;;;;;11.32;100.00;99694.88;5027064;28;20484;-45
2023/10/23 06:42:50;;;;;;;15.55;2.53;;;;;;;11.32;100.00;99700.41;5028379;28;20037;-44
2023/10/23 06:45:17;;;;;;;23.13;4.47;;;;;;;11.30;100.00;99706.34;5008660;28;20049;-44
2023/10/23 06:47:48;;;;;;;15.20;2.85;;;;;;;11.29;100.00;99696.44;5023522;28;20482;-44
2023/10/23 06:50:18;;;;;;;11.65;2.30;;;;;;;11.29;100.00;99701.16;5027095;28;20044;-49
2023/10/23 06:52:45;;;;;;;17.85;2.38;;;;;;;11.30;100.00;99711.88;5026945;28;20076;-46
2023/10/23 06:55:12;;;;;;;16.92;3.22;;;;;;;11.30;100.00;99706.34;5027265;28;20045;-44
2023/10/23 06:57:39;;;;;;;15.02;3.78;;;;;;;11.32;100.00;99709.53;5026145;28;20099;-44
2023/10/23 07:00:06;;;;;;;8.90;2.20;;;;;;;11.34;100.00;99701.63;5026540;28;20072;-44
2023/10/23 07:02:33;;;;;;;13.77;1.95;;;;;;;11.32;100.00;99704.00;5026810;28;20062;-44
2023/10/23 07:05:00;;;;;;;9.43;2.13;;;;;;;11.30;100.00;99700.81;5026824;28;20046;-44
2023/10/23 07:07:28;;;;;;;15.55;1.95;;;;;;;11.30;100.00;99700.00;5027123;28;20041;-45
2023/10/23 07:09:58;;;;;;;15.40;2.28;;;;;;;11.29;100.00;99703.94;5026673;28;20129;-46
2023/10/23 07:12:26;;;;;;;19.77;2.33;;;;;;;11.28;100.00;99703.13;5025964;28;20037;-45
2023/10/23 07:14:53;;;;;;;10.30;2.80;;;;;;;11.28;100.00;99708.66;5025432;28;20073;-45
2023/10/23 07:17:20;;;;;;;19.38;2.38;;;;;;;11.27;100.00;99709.06;5002244;28;20049;-46
2023/10/23 07:19:47;;;;;;;20.55;4.10;;;;;;;11.25;100.00;99703.09;5026724;28;20045;-44
2023/10/23 07:22:13;;;;;;;11.15;2.03;;;;;;;11.24;100.00;99713.38;5026433;28;20586;-46
2023/10/23 07:24:40;;;;;;;19.92;3.35;;;;;;;11.25;100.00;99714.97;5026656;28;20052;-44
2023/10/23 07:27:11;;;;;;;10.52;2.28;;;;;;;11.27;100.00;99711.84;5020748;28;20510;-45
2023/10/23 07:29:38;;;;;;;11.82;2.20;;;;;;;11.28;100.00;99713.44;5019589;28;20552;-46
2023/10/23 07:32:06;;;;;;;16.05;3.17;;;;;;;11.29;100.00;99713.06;5025374;28;20041;-44
2023/10/23 07:34:33;;;;;;;8.40;2.38;;;;;;;11.28;100.00;99714.22;5022070;28;20515;-46
2023/10/23 07:37:00;;;;;;;16.55;2.20;;;;;;;11.31;100.00;99713.47;5025949;28;20077;-45
2023/10/23 07:39:27;;;;;;;20.35;3.05;;;;;;;11.34;100.00;99709.16;5024666;28;20050;-44
2023/10/23 07:41:53;;;;;;;18.13;2.85;;;;;;;11.37;100.00;99711.16;5022500;28;20737;-47
2023/10/23 07:44:20;;;;;;;16.42;2.28;;;;;;;11.40;100.00;99689.06;5013401;28;20056;-46
2023/10/23 07:46:47;;;;;;;9.32;2.10;;;;;;;11.45;100.00;99710.91;5026406;28;20041;-44
2023/10/23 07:49:14;;;;;;;14.90;2.30;;;;;;;11.50;100.00;99707.78;5026169;28;20618;-47
2023/10/23 07:51:41;;;;;;;10.70;2.35;;;;;;;11.54;100.00;99694.75;5020834;28;20069;-47
2023/10/23 07:54:08;;;;;;;16.63;3.08;;;;;;;11.59;100.00;99708.31;5021789;28;20616;-47
2023/10/23 07:56:34;;;;;;;10.93;2.55;;;;;;;11.63;100.00;99709.16;5026206;28;20139;-46
2023/10/23 07:59:01;;;;;;;27.02;4.13;;;;;;;11.70;100.00;99707.69;5026377;28;20052;-44
2023/10/23 08:01:28;;;;;;;19.08;2.30;;;;;;;11.74;100.00;99708.50;5023940;28;20081;-48
2023/10/23 08:03:55;;;;;;;12.75;2.08;;;;;;;11.77;100.00;99703.00;5024399;28;20052;-46
2023/10/23 08:06:22;;;;;;;48.15;5.97;;;;;;;11.83;100.00;99703.47;5026299;28;20077;-45
2023/10/23 08:08:48;;;;;;;45.17;5.30;;;;;;;11.87;100.00;99699.56;5025404;28;20042;-45
2023/10/23 08:11:15;;;;;;;26.17;4.03;;;;;;;11.94;100.00;99707.16;5025874;28;20365;-48
2023/10/23 08:13:42;;;;;;;15.60;2.10;;;;;;;11.99;100.00;99706.81;5025503;28;20050;-46
2023/10/23 08:16:09;;;;;;;15.18;2.20;;;;;;;12.03;100.00;99710.44;5026406;28;20470;-46
2023/10/23 08:18:36;;;;;;;11.45;2.33;;;;;;;12.09;100.00;99711.69;5026148;28;20037;-44
2023/10/23 08:21:16;;;;;;;9.27;3.42;;;;;;;12.16;100.00;99709.78;5026228;28;20057;-46
2023/10/23 08:23:44;;;;;;;11.32;1.92;;;;;;;12.24;100.00;99716.19;5028863;28;20546;-44
2023/10/23 08:26:11;;;;;;;18.17;2.95;;;;;;;12.29;100.00;99713.06;5029308;28;20507;-46
2023/10/23 08:28:39;;;;;;;19.63;3.08;;;;;;;12.33;100.00;99713.91;5029582;28;20487;-47
2023/10/23 08:31:09;;;;;;;11.07;2.05;;;;;;;12.36;100.00;99713.16;5019849;28;20142;-43
2023/10/23 08:33:50;;;;;;;13.13;3.00;;;;;;;12.40;100.00;99719.53;5017804;28;20696;-48
2023/10/23 08:36:17;;;;;;;15.40;2.42;;;;;;;12.41;100.00;99718.38;5029313;28;20043;-46
2023/10/23 08:38:44;;;;;;;11.90;2.30;;;;;;;12.40;100.00;99725.09;5025446;28;20111;-45
2023/10/23 08:41:12;;;;;;;16.63;2.97;;;;;;;12.39;100.00;99712.38;5024701;28;20855;-46
2023/10/23 08:43:40;;;;;;;13.77;2.30;;;;;;;12.39;100.00;99714.38;5029277;28;20128;-49
2023/10/23 08:46:08;;;;;;;11.02;2.80;;;;;;;12.36;100.00;99704.03;5029028;28;20052;-49
2023/10/23 08:48:37;;;;;;;11.55;1.73;;;;;;;12.31;100.00;99705.16;5029123;28;20605;-47
2023/10/23 08:51:07;;;;;;;11.38;2.50;;;;;;;12.29;100.00;99701.97;5028688;28;20045;-49
2023/10/23 08:53:42;;;;;;;10.32;2.10;;;;;;;12.26;100.00;99691.63;5029306;28;20069;-47
2023/10/23 08:56:15;;;;;;;16.83;2.67;;;;;;;12.21;100.00;99692.78;5029358;28;20503;-49
2023/10/23 08:58:48;;;;;;;11.13;1.95;;;;;;;12.19;100.00;99681.28;5028678;28;20076;-49
2023/10/23 09:01:16;;;;;;;9.15;2.42;;;;;;;12.17;100.00;99680.06;5027936;28;20061;-51
2023/10/23 09:03:43;;;;;;;14.02;3.63;;;;;;;12.15;100.00;99674.09;5029221;28;20514;-45
2023/10/23 09:06:30;;;;;;;14.82;2.17;;;;;;;12.15;100.00;99674.88;5018600;28;20058;-44
2023/10/23 09:08:57;;;;;;;11.20;2.35;;;;;;;12.16;100.00;99675.69;5028286;28;20665;-46
2023/10/23 09:11:45;;;;;;;14.13;2.55;;;;;;;12.17;100.00;99677.28;5028812;28;20041;-47
2023/10/23 09:14:31;;;;;;;19.98;3.08;;;;;;;12.18;100.00;99684.41;5028779;28;20144;-44
2023/10/23 09:16:59;;;;;;;11.80;2.13;;;;;;;12.19;100.00;99681.28;5028681;28;20113;-43
2023/10/23 09:19:36;;;;;;;14.98;3.50;;;;;;;12.20;100.00;99687.63;5028383;28;20038;-47
2023/10/23 09:22:04;;;;;;;10.18;2.22;;;;;;;12.22;100.00;99674.16;5028635;28;20087;-45
2023/10/23 09:24:31;;;;;;;16.52;3.45;;;;;;;12.22;100.00;99682.47;5028597;28;20044;-44
2023/10/23 09:26:58;;;;;;;11.80;2.17;;;;;;;12.24;100.00;99682.91;5028838;28;20541;-44
2023/10/23 09:29:26;;;;;;;23.92;2.80;;;;;;;12.24;100.00;99677.34;5028683;28;20088;-44
2023/10/23 09:31:54;;;;;;;14.00;2.60;;;;;;;12.26;100.00;99669.44;5028425;28;20037;-45
2023/10/23 09:34:21;;;;;;;9.25;2.25;;;;;;;12.26;100.00;99680.53;5027740;28;20434;-46
2023/10/23 09:36:50;;;;;;;9.32;3.22;;;;;;;12.30;100.00;99681.38;5027952;28;20052;-45
2023/10/23 09:39:18;;;;;;;11.57;2.42;;;;;;;12.30;100.00;99678.59;5028351;28;20152;-46
2023/10/23 09:41:46;;;;;;;9.68;1.90;;;;;;;12.32;100.00;99678.19;5028342;28;20046;-44
2023/10/23 09:44:14;;;;;;;10.30;2.00;;;;;;;12.33;100.00;99671.47;5027591;28;20060;-47
2023/10/23 09:46:44;;;;;;;13.07;2.85;;;;;;;12.35;100.00;99672.69;5028556;28;20068;-46
2023/10/23 09:49:11;;;;;;;14.82;2.13;;;;;;;12.36;100.00;99663.19;5028224;28;20037;-45
2023/10/23 09:51:39;;;;;;;18.70;3.30;;;;;;;12.37;100.00;99653.69;5027976;28;20071;-45
2023/10/23 09:54:12;;;;;;;17.42;2.20;;;;;;;12.43;100.00;99646.59;5027619;28;20041;-44
2023/10/23 09:56:39;;;;;;;6.30;1.80;;;;;;;12.50;100.00;99652.19;5028301;28;20073;-44
2023/10/23 09:59:08;;;;;;;11.50;1.42;;;;;;;12.55;100.00;99653.84;5028088;28;20054;-46
2023/10/23 10:01:42;;;;;;;13.55;2.10;;;;;;;12.59;100.00;99644.34;5027246;28;20111;-45
2023/10/23 10:04:17;;;;;;;12.18;2.15;;;;;;;12.64;100.00;99643.19;5027324;28;20796;-46
2023/10/23 10:06:47;;;;;;;8.98;1.73;;;;;;;12.67;100.00;99646.00;5027856;28;20059;-48
2023/10/23 10:09:15;;;;;;;9.93;2.05;;;;;;;12.70;100.00;99644.44;5027827;28;20415;-45
2023/10/23 10:11:43;;;;;;;14.02;2.58;;;;;;;12.70;100.00;99642.44;5027970;28;20057;-46
2023/10/23 10:14:12;;;;;;;13.63;1.70;;;;;;;12.69;100.00;99629.75;5027194;28;20080;-46
2023/10/23 10:16:39;;;;;;;8.73;2.28;;;;;;;12.68;100.00;99644.03;5027433;28;20140;-45
2023/10/23 10:19:08;;;;;;;13.75;4.38;;;;;;;12.67;100.00;99645.19;5027755;28;20038;-44
2023/10/23 10:22:03;;;;;;;16.48;4.57;;;;;;;12.68;100.00;99647.56;5027394;28;20052;-45
2023/10/23 10:24:34;;;;;;;8.57;1.95;;;;;;;12.68;100.00;99642.00;5026999;28;20055;-45
2023/10/23 10:27:03;;;;;;;9.30;1.77;;;;;;;12.66;100.00;99641.63;5027071;28;20038;-45
2023/10/23 10:29:31;;;;;;;8.27;2.05;;;;;;;12.66;100.00;99644.38;5025556;28;20445;-45
2023/10/23 10:32:06;;;;;;;17.83;2.35;;;;;;;12.67;100.00;99642.41;5027451;28;20033;-45
2023/10/23 10:34:47;;;;;;;8.63;2.03;;;;;;;12.67;100.00;99646.00;5027079;28;20375;-44
2023/10/23 10:37:29;;;;;;;14.73;2.22;;;;;;;12.67;100.00;99640.44;5027378;28;20145;-45
2023/10/23 10:39:56;;;;;;;21.95;3.53;;;;;;;12.67;100.00;99653.53;5026675;28;20120;-48
2023/10/23 10:42:30;;;;;;;8.65;1.85;;;;;;;12.68;100.00;99642.00;5027368;28;20091;-46
2023/10/23 10:45:16;;;;;;;12.43;2.22;;;;;;;12.70;100.00;99649.97;5026665;28;20121;-45
2023/10/23 10:47:46;;;;;;;9.80;1.85;;;;;;;12.66;100.00;99638.84;5027084;28;20042;-46
2023/10/23 10:50:36;;;;;;;10.32;1.85;;;;;;;12.64;100.00;99640.41;5026244;28;20096;-45
2023/10/23 10:53:05;;;;;;;9.30;2.10;;;;;;;12.60;100.00;99640.38;5026957;28;20124;-47
2023/10/23 10:55:34;;;;;;;46.47;4.07;;;;;;;12.59;100.00;99641.56;5026996;28;20034;-44
2023/10/23 10:58:03;;;;;;;8.82;2.10;;;;;;;12.61;100.00;99650.31;5026445;28;20499;-44
2023/10/23 11:00:31;;;;;;;10.63;2.30;;;;;;;12.63;100.00;99642.38;5026708;28;20041;-46
2023/10/23 11:02:58;;;;;;;16.80;2.13;;;;;;;12.67;100.00;99637.66;5014146;28;20134;-45
2023/10/23 11:05:26;;;;;;;18.00;2.45;;;;;;;12.69;100.00;99628.94;5018892;28;20034;-44
2023/10/23 11:07:53;;;;;;;14.57;2.10;;;;;;;12.76;100.00;99629.78;5026736;28;20415;-44
2023/10/23 11:10:20;;;;;;;9.32;1.88;;;;;;;12.89;100.00;99623.91;5026600;28;20121;-50
2023/10/23 11:12:48;;;;;;;10.75;2.00;;;;;;;12.97;100.00;99618.03;5026296;28;20049;-48
2023/10/23 11:15:15;;;;;;;12.98;2.58;;;;;;;13.03;100.00;99612.88;5020889;28;20060;-45
2023/10/23 11:17:43;;;;;;;7.85;2.10;;;;;;;13.11;100.00;99614.53;5026742;28;20487;-44
2023/10/23 11:20:11;;;;;;;14.25;2.17;;;;;;;13.22;100.00;99613.41;5026661;28;20048;-44
2023/10/23 11:22:47;;;;;;;11.23;2.90;;;;;;;13.33;100.00;99613.44;5026633;28;20545;-45
2023/10/23 11:25:15;;;;;;;12.32;2.35;;;;;;;13.39;100.00;99609.13;5024596;28;20553;-45